Time;durP1;ratioP1;P1;durP2;ratioP2;P2;SDS_P1;SDS_P2;PMS_P1;PMS_P2;Temp;Humidity;BMP_temperature;BMP_pressure;BME280_temperature;BME280_humidity;BME280_pressure;Samples;Min_cycle;Max_cycle;Signal;HPM_P1;HPM_P2
2023/07/02 00:01:52;;;;;;;3.95;0.88;;;;;;;19.05;70.93;99552.63;10245167;28;20672;-58
2023/07/02 00:06:54;;;;;;;4.07;1.40;;;;;;;19.03;70.80;99550.13;10247416;28;20051;-59
2023/07/02 00:11:56;;;;;;;4.43;0.70;;;;;;;18.96;70.63;99555.78;10243507;28;20055;-59
2023/07/02 00:16:58;;;;;;;1.65;0.75;;;;;;;18.95;70.68;99565.00;10246929;28;20078;-58
2023/07/02 00:21:59;;;;;;;3.90;0.50;;;;;;;18.97;70.56;99564.78;10244120;28;20635;-58
2023/07/02 00:27:01;;;;;;;1.05;0.65;;;;;;;19.03;70.02;99552.88;10241724;28;20059;-58
2023/07/02 00:32:03;;;;;;;1.50;0.60;;;;;;;19.06;69.78;99544.19;10244966;28;20047;-58
2023/07/02 00:37:04;;;;;;;3.38;0.70;;;;;;;19.15;69.30;99526.31;10243390;28;20049;-59
2023/07/02 00:42:06;;;;;;;3.80;0.70;;;;;;;19.11;69.08;99540.72;10245559;28;20058;-59
2023/07/02 00:47:11;;;;;;;2.08;0.50;;;;;;;19.14;69.25;99551.94;10243436;28;20058;-58
2023/07/02 00:52:13;;;;;;;4.43;0.88;;;;;;;19.14;68.93;99549.22;10208963;28;20110;-58
2023/07/02 00:57:14;;;;;;;3.67;0.50;;;;;;;19.07;69.08;99559.44;10244711;28;20054;-58
2023/07/02 01:02:16;;;;;;;4.60;0.60;;;;;;;19.02;68.99;99571.13;10246250;28;20561;-58
2023/07/02 01:07:17;;;;;;;4.95;0.70;;;;;;;18.87;69.26;99567.34;10247154;28;20518;-58
2023/07/02 01:12:21;;;;;;;4.78;1.42;;;;;;;18.74;69.46;99566.59;10241291;28;20105;-58
2023/07/02 01:17:23;;;;;;;3.53;0.70;;;;;;;18.68;69.20;99564.88;10239497;28;20050;-58
2023/07/02 01:22:27;;;;;;;2.40;0.60;;;;;;;18.57;69.20;99574.75;10239818;28;20062;-58
2023/07/02 01:27:29;;;;;;;4.55;0.90;;;;;;;18.61;68.94;99566.94;10244928;28;20043;-58
2023/07/02 01:32:31;;;;;;;3.63;0.90;;;;;;;18.54;68.73;99568.97;10244557;28;20487;-58
2023/07/02 01:37:37;;;;;;;3.45;0.68;;;;;;;18.43;68.89;99570.72;10245978;28;20078;-58
2023/07/02 01:42:39;;;;;;;4.93;0.80;;;;;;;18.29;68.99;99559.34;10246194;28;20158;-57
2023/07/02 01:47:40;;;;;;;4.80;0.70;;;;;;;18.17;69.28;99558.59;10245426;28;20865;-58
2023/07/02 01:52:42;;;;;;;2.85;0.60;;;;;;;18.15;69.18;99567.00;10241443;28;20169;-59
2023/07/02 01:57:43;;;;;;;6.40;0.98;;;;;;;18.07;69.10;99575.56;10242546;28;20059;-59
2023/07/02 02:02:45;;;;;;;5.22;0.55;;;;;;;17.99;69.08;99576.78;10242796;28;20047;-59
2023/07/02 02:07:46;;;;;;;4.28;0.70;;;;;;;17.87;69.04;99584.16;10230102;28;20645;-59
2023/07/02 02:12:48;;;;;;;5.32;1.00;;;;;;;17.80;69.45;99584.25;10250035;28;20055;-58
2023/07/02 02:17:49;;;;;;;4.90;0.80;;;;;;;17.82;69.00;99579.41;10249849;28;20054;-59
2023/07/02 02:22:51;;;;;;;8.60;1.02;;;;;;;17.83;69.14;99596.53;10248179;28;20051;-58
2023/07/02 02:27:52;;;;;;;1.35;0.70;;;;;;;17.77;69.24;99592.91;10251430;28;20573;-58
2023/07/02 02:32:54;;;;;;;2.33;0.82;;;;;;;17.77;69.32;99594.78;10245563;28;20054;-58
2023/07/02 02:37:55;;;;;;;2.05;0.60;;;;;;;17.74;69.51;99593.38;10242275;28;20110;-59
2023/07/02 02:42:57;;;;;;;4.82;0.80;;;;;;;17.80;69.29;99594.31;10246061;28;20058;-58
2023/07/02 02:47:58;;;;;;;7.03;0.75;;;;;;;17.80;69.08;99603.28;10247655;28;20063;-59
2023/07/02 02:52:59;;;;;;;3.20;0.98;;;;;;;17.84;69.06;99600.97;10250679;28;20446;-59
2023/07/02 02:58:01;;;;;;;5.25;0.73;;;;;;;17.81;69.16;99601.41;10248742;28;20062;-58
2023/07/02 03:03:02;;;;;;;2.75;0.95;;;;;;;17.78;69.11;99610.06;10245771;28;20050;-58
2023/07/02 03:08:05;;;;;;;3.85;0.90;;;;;;;17.77;69.16;99621.97;10248641;28;20055;-57
2023/07/02 03:13:06;;;;;;;4.85;0.77;;;;;;;17.72;68.98;99617.28;10244037;28;20051;-57
2023/07/02 03:18:08;;;;;;;4.03;0.80;;;;;;;17.71;68.74;99625.66;10246438;28;20066;-57
2023/07/02 03:23:09;;;;;;;3.28;0.75;;;;;;;17.74;68.38;99626.00;10243109;28;20131;-58
2023/07/02 03:28:11;;;;;;;4.30;0.80;;;;;;;17.63;68.30;99622.28;10251092;28;20073;-58
2023/07/02 03:33:12;;;;;;;1.85;1.05;;;;;;;17.66;68.06;99631.00;10247427;28;20050;-58
2023/07/02 03:38:14;;;;;;;4.40;0.85;;;;;;;17.69;67.74;99623.19;10247866;28;20052;-60
2023/07/02 03:43:16;;;;;;;2.95;1.00;;;;;;;17.71;67.48;99621.03;10230622;28;20410;-59
2023/07/02 03:48:17;;;;;;;3.90;1.05;;;;;;;17.83;67.09;99618.28;10246657;28;20051;-58
2023/07/02 03:53:19;;;;;;;4.22;1.30;;;;;;;17.85;66.99;99629.78;10246738;28;20055;-58
2023/07/02 03:58:20;;;;;;;5.13;1.75;;;;;;;17.88;66.80;99644.81;10243311;28;20058;-59
2023/07/02 04:03:21;;;;;;;6.13;1.33;;;;;;;17.95;66.75;99650.91;10245002;28;20050;-58
2023/07/02 04:08:24;;;;;;;3.17;1.30;;;;;;;17.90;66.64;99661.69;10248522;28;20154;-59
2023/07/02 04:13:26;;;;;;;3.42;1.20;;;;;;;18.02;66.30;99654.31;10251065;28;20470;-59
2023/07/02 04:18:29;;;;;;;6.57;1.23;;;;;;;18.01;66.29;99663.56;10249826;28;20050;-58
2023/07/02 04:23:30;;;;;;;3.17;1.23;;;;;;;18.03;66.23;99670.41;10240560;28;20406;-57
2023/07/02 04:28:32;;;;;;;11.75;1.25;;;;;;;17.98;66.27;99674.91;10243190;28;20122;-58
2023/07/02 04:33:35;;;;;;;3.78;1.65;;;;;;;17.97;66.02;99673.25;10246214;28;20049;-58
2023/07/02 04:38:39;;;;;;;8.55;2.30;;;;;;;18.03;65.81;99673.13;10246395;28;20098;-60
2023/07/02 04:43:40;;;;;;;5.47;1.95;;;;;;;18.06;65.65;99677.25;10247687;28;20047;-59
2023/07/02 04:48:42;;;;;;;6.25;2.75;;;;;;;18.03;65.63;99675.84;10243108;28;20054;-58
2023/07/02 04:53:43;;;;;;;8.90;2.50;;;;;;;17.88;66.04;99674.72;10249736;28;20138;-58
2023/07/02 04:58:45;;;;;;;6.35;2.35;;;;;;;17.87;65.71;99690.22;10244515;28;20059;-59
2023/07/02 05:03:46;;;;;;;7.68;2.40;;;;;;;17.83;65.72;99694.41;10241911;28;20055;-59
2023/07/02 05:08:47;;;;;;;7.38;2.45;;;;;;;17.84;65.46;99696.13;10245993;28;20051;-58
2023/07/02 05:13:49;;;;;;;7.03;2.10;;;;;;;17.90;65.56;99707.94;10240615;28;20063;-59
2023/07/02 05:18:50;;;;;;;8.73;2.85;;;;;;;17.97;65.32;99711.31;10245841;28;20046;-59
2023/07/02 05:23:52;;;;;;;11.27;3.28;;;;;;;18.08;65.08;99712.38;10247160;28;20055;-60
2023/07/02 05:28:53;;;;;;;8.98;3.00;;;;;;;18.14;64.88;99722.28;10247452;28;20047;-61
2023/07/02 05:33:54;;;;;;;8.30;3.33;;;;;;;18.24;64.68;99717.84;10244263;28;20065;-61
2023/07/02 05:38:56;;;;;;;9.82;2.83;;;;;;;18.31;64.65;99716.91;10240296;28;20070;-59
2023/07/02 05:43:58;;;;;;;9.45;3.53;;;;;;;18.41;64.41;99722.56;10241286;28;20435;-61
2023/07/02 05:48:59;;;;;;;9.60;3.30;;;;;;;18.37;64.40;99722.19;10240667;28;20058;-60
2023/07/02 05:54:01;;;;;;;12.88;4.57;;;;;;;18.40;64.31;99727.19;10241438;28;20055;-58
2023/07/02 05:59:02;;;;;;;9.60;4.50;;;;;;;18.39;64.20;99730.13;10242874;28;20220;-58
2023/07/02 06:04:04;;;;;;;10.35;4.38;;;;;;;18.43;64.01;99732.13;10244329;28;20155;-59
2023/07/02 06:09:05;;;;;;;11.00;3.92;;;;;;;18.58;63.76;99744.34;10239548;28;20110;-58
2023/07/02 06:14:07;;;;;;;7.53;3.50;;;;;;;18.71;63.39;99749.50;10236855;28;20052;-59
2023/07/02 06:19:08;;;;;;;10.65;3.97;;;;;;;18.96;63.23;99751.06;10239104;28;20054;-59
2023/07/02 06:24:10;;;;;;;9.93;3.42;;;;;;;19.00;62.98;99752.22;10243537;28;20058;-60
2023/07/02 06:29:11;;;;;;;11.18;4.40;;;;;;;19.21;62.65;99747.94;10239740;28;20514;-59
2023/07/02 06:34:13;;;;;;;9.85;5.07;;;;;;;19.23;62.29;99751.22;10239763;28;20062;-61
2023/07/02 06:39:15;;;;;;;10.48;3.83;;;;;;;19.34;61.97;99761.22;10235305;28;20753;-61
2023/07/02 06:44:16;;;;;;;10.55;4.40;;;;;;;19.53;61.98;99759.06;10242133;28;20386;-58
2023/07/02 06:49:18;;;;;;;10.02;3.33;;;;;;;19.66;61.31;99770.69;10239136;28;20414;-58
2023/07/02 06:54:19;;;;;;;14.77;4.63;;;;;;;19.61;61.44;99775.00;10241590;28;20466;-59
2023/07/02 06:59:24;;;;;;;12.40;4.20;;;;;;;19.68;61.09;99774.00;10243434;28;20059;-57
2023/07/02 07:04:25;;;;;;;14.18;4.40;;;;;;;19.64;61.02;99789.22;10251648;28;20054;-58
2023/07/02 07:09:27;;;;;;;9.38;5.25;;;;;;;19.73;60.43;99780.41;10249118;28;20443;-58
2023/07/02 07:14:28;;;;;;;11.88;4.18;;;;;;;19.92;59.85;99785.56;10245466;28;20070;-59
2023/07/02 07:19:30;;;;;;;10.77;4.43;;;;;;;20.27;59.24;99774.28;10241629;28;20047;-58
2023/07/02 07:24:31;;;;;;;10.13;4.05;;;;;;;20.48;58.74;99788.16;10245003;28;20043;-59
2023/07/02 07:29:32;;;;;;;12.45;4.95;;;;;;;20.70;58.79;99778.09;10238158;28;20048;-61
2023/07/02 07:34:34;;;;;;;11.18;4.78;;;;;;;20.93;58.48;99793.34;10250517;28;20047;-59
2023/07/02 07:39:36;;;;;;;11.25;4.82;;;;;;;20.96;57.68;99779.16;10248509;28;20047;-60
2023/07/02 07:44:37;;;;;;;12.98;5.70;;;;;;;21.24;57.41;99784.59;10244653;28;20051;-59
2023/07/02 07:49:39;;;;;;;10.45;4.65;;;;;;;21.41;56.66;99781.75;10245722;28;20053;-58
2023/07/02 07:54:40;;;;;;;8.75;4.75;;;;;;;21.62;57.07;99790.94;10246460;28;20506;-60
2023/07/02 07:59:42;;;;;;;14.95;5.28;;;;;;;21.66;56.28;99794.78;10241870;28;20085;-60
2023/07/02 08:04:43;;;;;;;14.27;5.57;;;;;;;21.61;56.40;99797.50;10242043;28;20051;-60
2023/07/02 08:09:45;;;;;;;11.32;5.65;;;;;;;21.46;56.21;99793.56;10227966;28;20050;-60
2023/07/02 08:14:46;;;;;;;11.73;4.68;;;;;;;21.83;55.70;99797.38;10245962;28;20117;-60
2023/07/02 08:19:48;;;;;;;14.27;5.65;;;;;;;22.01;55.36;99804.31;10245589;28;20051;-60
2023/07/02 08:24:49;;;;;;;15.60;5.93;;;;;;;21.98;54.89;99798.28;10242685;28;20568;-60
2023/07/02 08:29:51;;;;;;;15.65;5.90;;;;;;;22.13;54.48;99807.66;10246908;28;20149;-61
2023/07/02 08:34:52;;;;;;;11.45;5.20;;;;;;;22.16;54.41;99802.47;10242165;28;20047;-61
2023/07/02 08:39:54;;;;;;;11.98;5.35;;;;;;;22.28;54.52;99804.22;10232598;28;20048;-60
2023/07/02 08:44:57;;;;;;;13.88;6.03;;;;;;;22.44;53.92;99802.38;10242279;28;20066;-60
2023/07/02 08:49:59;;;;;;;14.18;5.45;;;;;;;22.65;53.68;99804.09;10239300;28;20079;-60
2023/07/02 08:55:00;;;;;;;13.50;6.05;;;;;;;22.63;53.38;99806.28;10238076;28;20055;-60
2023/07/02 09:00:09;;;;;;;14.80;6.20;;;;;;;22.63;53.12;99802.69;10239232;28;20439;-59
2023/07/02 09:05:10;;;;;;;10.68;5.30;;;;;;;22.43;52.06;99809.75;10245254;28;20598;-59
2023/07/02 09:10:25;;;;;;;9.80;4.25;;;;;;;22.24;49.91;99812.13;10241031;28;20054;-60
2023/07/02 09:15:26;;;;;;;7.82;4.47;;;;;;;22.28;49.93;99809.69;10238572;28;20074;-60
2023/07/02 09:20:34;;;;;;;12.45;4.72;;;;;;;22.67;49.02;99806.53;10237035;28;20458;-59
2023/07/02 09:25:40;;;;;;;10.75;4.65;;;;;;;22.67;47.53;99807.38;10241831;28;20094;-60
2023/07/02 09:30:57;;;;;;;9.25;4.28;;;;;;;22.76;46.70;99813.97;10238368;28;20055;-60
2023/07/02 09:35:59;;;;;;;8.75;3.78;;;;;;;22.89;46.64;99809.88;10220770;28;20073;-60
2023/07/02 09:41:00;;;;;;;11.40;5.10;;;;;;;22.71;45.92;99818.59;10242506;28;20078;-60
2023/07/02 09:46:03;;;;;;;10.77;4.18;;;;;;;22.94;45.48;99800.84;10241013;28;20043;-60
2023/07/02 09:51:04;;;;;;;6.78;3.45;;;;;;;23.14;44.40;99800.91;10242609;28;20122;-61
2023/07/02 09:56:08;;;;;;;9.80;3.70;;;;;;;22.89;44.65;99804.41;10240001;28;20051;-61
2023/07/02 10:01:10;;;;;;;12.95;4.93;;;;;;;22.77;44.04;99810.13;10241525;28;20066;-61
2023/07/02 10:06:11;;;;;;;8.98;4.25;;;;;;;22.67;44.03;99814.75;10244206;28;20046;-62
2023/07/02 10:11:13;;;;;;;7.53;3.60;;;;;;;22.85;43.13;99807.94;10267149;28;20041;-64
2023/07/02 10:16:14;;;;;;;12.20;4.60;;;;;;;23.11;43.18;99809.69;10231722;28;20494;-63
2023/07/02 10:21:17;;;;;;;7.68;3.88;;;;;;;23.21;43.19;99808.06;10279824;28;20105;-63
2023/07/02 10:26:19;;;;;;;10.40;4.22;;;;;;;23.56;42.32;99802.56;10259456;28;20074;-63
2023/07/02 10:31:21;;;;;;;10.05;4.30;;;;;;;23.65;41.11;99793.75;10266840;28;20734;-64
2023/07/02 10:36:24;;;;;;;9.40;4.35;;;;;;;23.90;39.88;99798.41;10282728;28;20059;-63
2023/07/02 10:41:28;;;;;;;8.35;4.03;;;;;;;24.20;39.47;99792.00;10283508;28;20058;-64
2023/07/02 10:46:29;;;;;;;6.93;2.92;;;;;;;24.11;39.36;99800.00;10287930;28;20126;-63
2023/07/02 10:51:31;;;;;;;9.77;3.28;;;;;;;24.14;38.37;99801.38;10293636;28;20123;-63
2023/07/02 10:56:32;;;;;;;7.30;3.47;;;;;;;24.42;37.90;99802.63;10271556;28;20045;-64
2023/07/02 11:01:34;;;;;;;7.82;3.00;;;;;;;24.19;36.62;99795.03;10282888;28;20075;-62
2023/07/02 11:06:35;;;;;;;9.43;2.97;;;;;;;24.21;36.33;99793.66;10274182;28;20067;-62
2023/07/02 11:11:37;;;;;;;5.78;3.10;;;;;;;24.48;36.15;99796.00;10280572;28;20063;-63
2023/07/02 11:16:38;;;;;;;10.70;4.78;;;;;;;24.37;36.66;99791.69;10281425;28;20047;-62
2023/07/02 11:21:50;;;;;;;7.57;4.30;;;;;;;24.25;37.72;99802.97;10275310;28;20114;-63
2023/07/02 11:26:52;;;;;;;11.48;4.93;;;;;;;24.28;38.28;99796.91;10275599;28;20051;-63
2023/07/02 11:31:53;;;;;;;9.45;4.57;;;;;;;24.40;38.49;99804.03;10263122;28;20087;-62
2023/07/02 11:36:54;;;;;;;10.50;4.95;;;;;;;24.51;38.47;99794.66;10281084;28;20059;-62
2023/07/02 11:41:56;;;;;;;9.32;4.75;;;;;;;24.25;37.96;99799.41;10275831;28;20039;-62
2023/07/02 11:46:58;;;;;;;8.63;4.13;;;;;;;24.47;37.03;99785.31;10277367;28;20047;-62
2023/07/02 11:51:59;;;;;;;7.85;4.50;;;;;;;24.89;36.27;99786.75;10279915;28;20119;-62
2023/07/02 11:57:01;;;;;;;11.93;5.05;;;;;;;24.81;36.59;99798.34;10261602;28;20051;-62
2023/07/02 12:02:02;;;;;;;10.25;4.05;;;;;;;24.54;36.50;99807.81;10242211;28;20060;-62
2023/07/02 12:07:04;;;;;;;11.52;5.07;;;;;;;24.46;36.35;99813.88;10241093;28;20499;-62
2023/07/02 12:12:06;;;;;;;8.82;5.13;;;;;;;24.85;36.19;99788.41;10244040;28;20050;-62
2023/07/02 12:17:07;;;;;;;14.73;4.90;;;;;;;25.20;35.01;99773.59;10244538;28;20483;-63
2023/07/02 12:22:09;;;;;;;10.40;4.25;;;;;;;25.53;32.05;99795.88;10242162;28;20043;-62
2023/07/02 12:27:10;;;;;;;10.38;4.40;;;;;;;25.81;32.20;99785.16;10248868;28;20055;-62
2023/07/02 12:32:12;;;;;;;8.80;4.45;;;;;;;25.79;32.24;99793.72;10249034;28;20557;-62
2023/07/02 12:37:17;;;;;;;11.63;5.28;;;;;;;25.98;31.24;99788.31;10226580;28;20063;-62
2023/07/02 12:42:18;;;;;;;9.35;5.20;;;;;;;26.29;31.37;99787.97;10237940;28;20053;-62
2023/07/02 12:47:20;;;;;;;13.02;4.18;;;;;;;26.35;31.44;99799.75;10248710;28;20368;-62
2023/07/02 12:52:21;;;;;;;13.45;4.80;;;;;;;26.55;31.40;99806.94;10241639;28;20051;-63
2023/07/02 12:57:23;;;;;;;11.10;4.10;;;;;;;26.31;30.30;99808.59;10240880;28;20055;-62
2023/07/02 13:02:24;;;;;;;8.60;4.07;;;;;;;26.50;30.94;99819.66;10242548;28;20047;-63
2023/07/02 13:07:26;;;;;;;7.25;4.03;;;;;;;26.73;30.84;99825.44;10247489;28;20118;-63
2023/07/02 13:12:27;;;;;;;11.18;4.72;;;;;;;26.22;31.46;99821.38;10247788;28;20051;-62
2023/07/02 13:17:29;;;;;;;10.98;4.40;;;;;;;25.94;31.18;99817.56;10243552;28;20047;-63
2023/07/02 13:22:30;;;;;;;7.57;3.78;;;;;;;26.17;29.46;99818.69;10243740;28;20134;-63
2023/07/02 13:27:32;;;;;;;9.00;4.57;;;;;;;26.05;30.39;99832.06;10241687;28;20516;-62
2023/07/02 13:32:33;;;;;;;10.10;4.63;;;;;;;25.90;31.27;99828.31;10235323;28;20051;-62
2023/07/02 13:37:35;;;;;;;11.57;5.35;;;;;;;26.22;30.93;99839.84;10249053;28;20138;-62
2023/07/02 13:42:36;;;;;;;10.15;4.90;;;;;;;26.52;30.75;99831.22;10240871;28;20051;-62
2023/07/02 13:47:38;;;;;;;10.35;5.05;;;;;;;27.06;30.47;99831.88;10242068;28;20039;-62
2023/07/02 13:52:39;;;;;;;13.82;5.75;;;;;;;27.65;29.51;99826.00;10243601;28;20398;-62
2023/07/02 13:57:41;;;;;;;10.65;5.95;;;;;;;27.75;29.55;99836.06;10243871;28;20051;-61
2023/07/02 14:02:42;;;;;;;9.45;5.05;;;;;;;27.03;30.22;99834.41;10241121;28;20730;-62
2023/07/02 14:07:44;;;;;;;9.70;5.05;;;;;;;26.49;30.67;99836.50;10247175;28;20070;-62
2023/07/02 14:12:45;;;;;;;15.73;6.63;;;;;;;26.14;30.86;99841.31;10245002;28;20054;-62
2023/07/02 14:17:47;;;;;;;12.82;5.82;;;;;;;26.13;31.32;99853.44;10253286;28;20047;-63
2023/07/02 14:22:48;;;;;;;13.77;5.97;;;;;;;26.01;31.29;99839.25;10248527;28;20490;-63
2023/07/02 14:27:50;;;;;;;11.43;5.55;;;;;;;26.01;31.74;99834.56;10248151;28;20047;-63
2023/07/02 14:32:51;;;;;;;12.05;5.22;;;;;;;25.97;31.62;99832.66;10251172;28;20059;-62
2023/07/02 14:37:53;;;;;;;13.15;6.45;;;;;;;26.53;31.59;99818.25;10252512;28;20465;-61
2023/07/02 14:42:55;;;;;;;16.25;7.03;;;;;;;26.25;31.34;99836.50;10228567;28;20114;-62
2023/07/02 14:47:59;;;;;;;14.38;6.60;;;;;;;25.81;32.37;99841.06;10248343;28;20525;-62
2023/07/02 14:53:01;;;;;;;11.00;5.72;;;;;;;26.34;31.28;99831.16;10242762;28;20059;-62
2023/07/02 14:58:03;;;;;;;14.48;7.55;;;;;;;26.47;31.56;99813.91;10247926;28;20893;-61
2023/07/02 15:03:04;;;;;;;16.38;5.80;;;;;;;26.90;30.65;99830.47;10250303;28;20043;-62
2023/07/02 15:08:07;;;;;;;19.05;6.05;;;;;;;27.02;29.87;99806.00;10246115;28;20077;-62
2023/07/02 15:13:09;;;;;;;15.38;6.32;;;;;;;26.60;30.15;99817.91;10241122;28;20055;-63
2023/07/02 15:18:11;;;;;;;11.55;6.70;;;;;;;26.51;30.74;99828.75;10240447;28;20252;-63
2023/07/02 15:23:13;;;;;;;15.40;5.72;;;;;;;26.76;30.44;99824.03;10238372;28;20051;-63
2023/07/02 15:28:15;;;;;;;11.80;5.65;;;;;;;27.03;30.04;99813.16;10248735;28;20051;-61
2023/07/02 15:33:17;;;;;;;12.73;6.70;;;;;;;26.74;30.54;99818.00;10247708;28;20043;-61
2023/07/02 15:38:19;;;;;;;13.93;6.35;;;;;;;26.67;30.17;99810.91;10244971;28;20051;-62
2023/07/02 15:43:20;;;;;;;14.52;6.53;;;;;;;26.94;30.23;99811.38;10244252;28;20055;-61
2023/07/02 15:48:22;;;;;;;11.02;6.20;;;;;;;26.48;30.23;99807.28;10247982;28;20055;-61
2023/07/02 15:53:24;;;;;;;9.60;5.90;;;;;;;26.51;30.28;99799.22;10244817;28;20074;-62
2023/07/02 15:58:28;;;;;;;13.25;5.70;;;;;;;26.62;30.09;99799.97;10246463;28;20114;-61
2023/07/02 16:03:31;;;;;;;12.05;6.00;;;;;;;26.41;30.45;99801.31;10243369;28;20655;-62
2023/07/02 16:08:32;;;;;;;11.90;6.00;;;;;;;26.60;30.20;99816.00;10249497;28;20059;-62
2023/07/02 16:13:36;;;;;;;11.38;5.88;;;;;;;27.12;29.58;99804.22;10247173;28;20058;-61
2023/07/02 16:18:37;;;;;;;13.30;6.32;;;;;;;27.16;29.50;99803.31;10257368;28;20063;-61
2023/07/02 16:23:40;;;;;;;15.02;5.72;;;;;;;27.31;29.38;99791.22;10261550;28;20057;-61
2023/07/02 16:28:41;;;;;;;11.32;5.43;;;;;;;27.37;29.67;99783.66;10238034;28;20074;-61
2023/07/02 16:33:42;;;;;;;13.50;6.72;;;;;;;27.15;29.75;99790.63;10235582;28;20070;-61
2023/07/02 16:38:44;;;;;;;11.07;5.78;;;;;;;26.90;29.51;99786.34;10256644;28;20067;-61
2023/07/02 16:43:46;;;;;;;19.55;6.53;;;;;;;27.05;29.68;99783.34;10237835;28;20047;-61
2023/07/02 16:48:47;;;;;;;9.82;5.47;;;;;;;26.72;29.76;99785.22;10257922;28;20071;-63
2023/07/02 16:53:49;;;;;;;12.38;5.97;;;;;;;26.96;29.69;99785.13;10224466;28;20043;-62
2023/07/02 16:58:50;;;;;;;13.98;6.90;;;;;;;27.30;29.38;99787.63;10235212;28;20051;-62
2023/07/02 17:03:51;;;;;;;12.38;5.78;;;;;;;27.25;29.65;99793.25;10244122;28;20051;-62
2023/07/02 17:09:16;;;;;;;12.90;6.57;;;;;;;27.23;29.57;99778.06;10223163;28;20051;-62
2023/07/02 17:14:23;;;;;;;11.82;5.93;;;;;;;26.93;29.99;99784.91;10240397;28;20058;-62
2023/07/02 17:19:33;;;;;;;11.70;6.20;;;;;;;26.98;29.89;99785.66;10245526;28;20051;-61
2023/07/02 17:24:38;;;;;;;15.60;6.70;;;;;;;27.14;29.89;99783.47;10239726;28;20051;-61
2023/07/02 17:29:41;;;;;;;13.70;6.82;;;;;;;27.20;29.58;99784.22;10237217;28;20058;-60
2023/07/02 17:34:43;;;;;;;14.73;6.78;;;;;;;26.99;29.57;99784.53;10240255;28;20093;-59
2023/07/02 17:39:45;;;;;;;13.88;6.97;;;;;;;26.69;30.09;99791.31;10226270;28;20043;-59
2023/07/02 17:44:47;;;;;;;13.60;6.63;;;;;;;26.67;30.25;99788.84;10239781;28;20047;-58
2023/07/02 17:49:49;;;;;;;11.77;6.32;;;;;;;26.64;30.39;99789.47;10232647;28;20055;-60
2023/07/02 17:54:54;;;;;;;14.48;6.75;;;;;;;26.35;30.58;99775.75;10240120;28;20062;-61
2023/07/02 17:59:58;;;;;;;13.60;6.43;;;;;;;25.98;31.07;99784.75;10243974;28;20146;-58
2023/07/02 18:05:00;;;;;;;14.85;6.72;;;;;;;25.80;31.45;99786.28;10242464;28;20067;-60
2023/07/02 18:10:01;;;;;;;13.35;6.47;;;;;;;25.61;31.47;99791.69;10244819;28;20058;-59
2023/07/02 18:15:03;;;;;;;14.60;6.35;;;;;;;25.47;32.13;99786.03;10239667;28;20065;-60
2023/07/02 18:20:06;;;;;;;11.45;6.60;;;;;;;25.33;31.92;99778.44;10239148;28;20066;-57
2023/07/02 18:25:07;;;;;;;21.35;6.68;;;;;;;25.12;32.66;99788.78;10258492;28;20035;-63
2023/07/02 18:30:09;;;;;;;14.55;6.57;;;;;;;24.85;32.98;99786.50;10264556;28;20111;-63
2023/07/02 18:35:11;;;;;;;14.70;6.63;;;;;;;24.69;33.35;99790.44;10287268;28;20063;-63
2023/07/02 18:40:14;;;;;;;13.27;6.43;;;;;;;24.52;33.01;99785.31;10280347;28;20050;-63
2023/07/02 18:45:16;;;;;;;16.15;6.88;;;;;;;24.44;33.62;99785.88;10254196;28;20099;-64
2023/07/02 18:50:17;;;;;;;14.60;6.03;;;;;;;24.32;34.21;99798.00;10257143;28;20042;-63
2023/07/02 18:55:19;;;;;;;15.65;6.65;;;;;;;24.30;34.06;99794.72;10286732;28;20126;-63
2023/07/02 19:00:21;;;;;;;17.40;6.53;;;;;;;24.15;33.95;99798.34;10255568;28;20035;-63
2023/07/02 19:05:22;;;;;;;12.07;6.35;;;;;;;24.01;34.40;99790.97;10271799;28;20059;-62
2023/07/02 19:10:25;;;;;;;14.25;5.40;;;;;;;23.94;34.73;99797.56;10247062;28;20051;-62
2023/07/02 19:15:28;;;;;;;15.00;6.30;;;;;;;23.77;34.92;99797.03;10281974;28;20048;-63
2023/07/02 19:20:29;;;;;;;15.65;6.63;;;;;;;23.68;35.05;99799.53;10296882;28;20046;-64
2023/07/02 19:25:31;;;;;;;12.52;5.93;;;;;;;23.69;35.01;99792.91;10297617;28;20027;-63
2023/07/02 19:30:32;;;;;;;14.88;6.10;;;;;;;23.49;35.53;99799.25;10296619;28;20058;-63
2023/07/02 19:35:38;;;;;;;15.77;6.13;;;;;;;23.37;35.81;99795.97;10297031;28;20035;-65
2023/07/02 19:40:40;;;;;;;14.88;7.25;;;;;;;23.30;36.11;99800.91;10295650;28;20051;-64
2023/07/02 19:45:41;;;;;;;16.05;6.50;;;;;;;23.28;36.31;99806.69;10260062;28;20051;-70
2023/07/02 19:50:43;;;;;;;14.73;5.60;;;;;;;23.10;36.56;99809.94;10247317;28;20498;-68
2023/07/02 19:55:45;;;;;;;15.32;6.85;;;;;;;23.04;36.82;99814.59;10251541;28;20039;-69
2023/07/02 20:00:48;;;;;;;21.13;6.35;;;;;;;22.86;37.14;99821.38;10212765;28;20147;-69
2023/07/02 20:05:49;;;;;;;21.15;7.38;;;;;;;22.71;37.70;99830.41;10246792;28;20070;-67
2023/07/02 20:10:52;;;;;;;16.13;7.55;;;;;;;22.64;37.76;99838.03;10243272;28;20058;-62
2023/07/02 20:15:56;;;;;;;12.32;6.38;;;;;;;22.50;38.16;99834.16;10237404;28;20099;-61
2023/07/02 20:21:03;;;;;;;18.48;6.75;;;;;;;22.32;38.41;99828.06;10246412;28;20050;-62
2023/07/02 20:26:04;;;;;;;17.15;6.93;;;;;;;22.26;38.65;99842.81;10243359;28;20066;-62
2023/07/02 20:31:06;;;;;;;16.25;5.60;;;;;;;22.14;39.05;99842.19;10243083;28;20070;-62
2023/07/02 20:36:12;;;;;;;15.52;6.25;;;;;;;22.03;39.38;99838.53;10245431;28;20071;-62
2023/07/02 20:41:14;;;;;;;16.83;6.40;;;;;;;21.99;39.29;99845.63;10242706;28;20669;-61
2023/07/02 20:46:15;;;;;;;15.07;5.75;;;;;;;21.88;39.61;99836.53;10242209;28;20075;-61
2023/07/02 20:51:17;;;;;;;13.38;6.22;;;;;;;21.79;40.11;99847.13;10249513;28;20047;-61
2023/07/02 20:56:18;;;;;;;13.25;5.95;;;;;;;21.71;40.08;99844.06;10242319;28;20493;-61
2023/07/02 21:01:19;;;;;;;19.25;6.70;;;;;;;21.55;40.82;99854.91;10238711;28;20114;-61
2023/07/02 21:06:24;;;;;;;17.63;6.55;;;;;;;21.53;40.46;99859.00;10247360;28;20416;-61
2023/07/02 21:11:26;;;;;;;13.05;6.13;;;;;;;21.44;40.96;99857.81;10242696;28;20059;-62
2023/07/02 21:16:35;;;;;;;15.00;5.75;;;;;;;21.43;40.98;99865.19;10240341;28;20055;-61
2023/07/02 21:21:38;;;;;;;16.67;5.80;;;;;;;21.35;41.55;99866.44;10242034;28;20062;-61
2023/07/02 21:26:40;;;;;;;13.85;5.65;;;;;;;21.26;41.81;99864.44;10233255;28;20062;-61
2023/07/02 21:31:41;;;;;;;14.30;6.50;;;;;;;21.20;41.68;99867.13;10241927;28;20050;-60
2023/07/02 21:36:43;;;;;;;15.73;6.30;;;;;;;21.09;41.71;99875.47;10224186;28;20141;-60
2023/07/02 21:41:47;;;;;;;14.13;6.75;;;;;;;21.01;42.20;99876.78;10242370;28;20062;-61
2023/07/02 21:46:48;;;;;;;13.75;5.35;;;;;;;20.94;42.10;99882.44;10244133;28;20059;-60
2023/07/02 21:51:50;;;;;;;18.38;7.72;;;;;;;20.91;42.19;99893.03;10239855;28;20047;-60
2023/07/02 21:56:51;;;;;;;12.68;6.10;;;;;;;20.88;42.70;99885.38;10236532;28;20062;-60
2023/07/02 22:01:53;;;;;;;14.85;5.28;;;;;;;20.81;42.85;99885.53;10238330;28;20047;-60
2023/07/02 22:06:56;;;;;;;14.88;5.75;;;;;;;20.69;43.26;99888.41;10238424;28;20055;-60
2023/07/02 22:11:58;;;;;;;14.13;5.30;;;;;;;20.70;42.90;99878.34;10240266;28;20055;-60
2023/07/02 22:17:07;;;;;;;13.80;5.32;;;;;;;20.65;43.15;99879.06;10242189;28;20059;-60
2023/07/02 22:22:09;;;;;;;15.13;5.22;;;;;;;20.57;43.62;99887.69;10239790;28;20054;-60
2023/07/02 22:27:10;;;;;;;15.57;5.43;;;;;;;20.48;43.65;99889.19;10253341;28;20083;-61
2023/07/02 22:32:11;;;;;;;12.48;5.47;;;;;;;20.43;43.95;99892.69;10248811;28;20055;-61
2023/07/02 22:37:13;;;;;;;21.92;6.28;;;;;;;20.35;44.11;99882.22;10246394;28;20058;-61
2023/07/02 22:42:14;;;;;;;17.35;5.18;;;;;;;20.31;44.30;99887.34;10245826;28;20066;-61
2023/07/02 22:47:16;;;;;;;12.73;5.15;;;;;;;20.21;44.56;99879.03;10245555;28;20140;-61
2023/07/02 22:52:18;;;;;;;13.27;5.00;;;;;;;20.12;44.73;99875.06;10233238;28;20507;-59
2023/07/02 22:57:20;;;;;;;12.93;5.32;;;;;;;20.01;45.28;99871.38;10250455;28;20050;-58
2023/07/02 23:02:21;;;;;;;16.38;6.05;;;;;;;19.98;45.33;99872.69;10247742;28;20656;-58
2023/07/02 23:07:23;;;;;;;15.02;5.57;;;;;;;19.90;45.43;99877.72;10248921;28;20417;-59
2023/07/02 23:12:24;;;;;;;12.32;4.93;;;;;;;19.76;45.78;99871.78;10246655;28;20047;-58